createdAt,value
2019-04-23T00:02:39.492Z,37.00
2019-04-23T00:05:02.480Z,37.10
2019-04-23T00:07:44.508Z,37.20
2019-04-23T00:10:12.653Z,37.20
2019-04-23T00:20:03.828Z,37.50
2019-04-23T00:22:54.186Z,37.70
2019-04-23T00:25:49.722Z,37.80
2019-04-23T00:28:16.096Z,37.80
2019-04-23T00:30:44.106Z,37.80
2019-04-23T00:33:08.642Z,37.90
2019-04-23T00:35:34.210Z,38.10
2019-04-23T00:38:06.008Z,37.90
2019-04-23T00:40:37.549Z,38.10
2019-04-23T00:43:01.969Z,38.20
2019-04-23T00:45:32.848Z,38.00
2019-04-23T00:47:57.649Z,38.40
2019-04-23T00:52:57.657Z,38.40
2019-04-23T00:55:33.069Z,38.80
2019-04-23T00:57:58.200Z,38.70
2019-04-23T01:00:39.018Z,38.90
2019-04-23T01:02:53.327Z,38.80
2019-04-23T01:05:24.061Z,38.90
2019-04-23T01:07:49.788Z,38.80
2019-04-23T01:10:29.221Z,39.40
2019-04-23T01:12:59.653Z,38.90
2019-04-23T01:15:25.752Z,39.10
2019-04-23T01:20:33.296Z,39.10
2019-04-23T01:22:40.183Z,39.30
2019-04-23T01:25:22.230Z,39.40
2019-04-23T01:28:15.958Z,39.40
2019-04-23T01:30:40.619Z,39.70
2019-04-23T01:33:12.238Z,39.70
2019-04-23T01:35:39.697Z,39.90
2019-04-23T01:38:04.499Z,40.00
2019-04-23T01:40:36.515Z,40.20
2019-04-23T01:43:05.552Z,40.10
2019-04-23T01:45:31.298Z,40.20
2019-04-23T01:47:59.747Z,40.30
2019-04-23T01:50:37.352Z,40.50
2019-04-23T01:53:09.989Z,40.50
2019-04-23T01:55:38.399Z,40.60
2019-04-23T01:58:23.918Z,41.20
2019-04-23T02:00:35.170Z,40.90
2019-04-23T02:03:06.039Z,41.00
2019-04-23T02:05:32.940Z,41.00
2019-04-23T02:08:06.493Z,41.00
2019-04-23T02:10:49.021Z,41.00
2019-04-23T02:15:36.343Z,41.10
2019-04-23T02:18:10.449Z,41.40
2019-04-23T02:20:36.271Z,41.60
2019-04-23T02:28:31.152Z,41.50
2019-04-23T02:33:29.872Z,42.00
2019-04-23T02:45:54.949Z,42.10
2019-04-23T02:50:40.132Z,42.30
2019-04-23T02:53:14.859Z,42.40
2019-04-23T02:58:10.271Z,42.60
2019-04-23T03:01:08.967Z,42.70
2019-04-23T03:03:06.226Z,42.80
2019-04-23T03:05:35.985Z,43.00
2019-04-23T03:08:02.175Z,43.00
2019-04-23T03:10:31.299Z,42.90
2019-04-23T03:15:52.308Z,43.20
2019-04-23T03:18:44.514Z,43.20
2019-04-23T03:24:21.335Z,43.20
2019-04-23T03:29:10.694Z,43.70
2019-04-23T03:36:43.208Z,43.80
2019-04-23T03:38:54.346Z,43.70
2019-04-23T03:43:52.861Z,43.80
2019-04-23T03:51:26.042Z,44.10
2019-04-23T03:54:11.646Z,44.20
2019-04-23T03:58:47.465Z,44.60
2019-04-23T04:04:22.911Z,44.70
2019-04-23T04:06:26.660Z,45.20
2019-04-23T04:08:46.700Z,44.70
2019-04-23T04:11:14.601Z,45.10
2019-04-23T04:16:12.014Z,45.20
2019-04-23T04:18:46.171Z,45.00
2019-04-23T04:21:18.495Z,45.10
2019-04-23T04:23:43.465Z,45.10
2019-04-23T04:26:13.997Z,45.20
2019-04-23T04:28:46.572Z,45.00
2019-04-23T04:31:05.742Z,45.00
2019-04-23T04:33:51.016Z,45.00
2019-04-23T04:36:14.298Z,44.70
2019-04-23T04:41:04.315Z,45.10
2019-04-23T04:48:30.560Z,45.20
2019-04-23T04:51:05.585Z,45.20
2019-04-23T04:55:55.738Z,45.10
2019-04-23T04:58:23.822Z,45.10
2019-04-23T05:01:03.993Z,45.20
2019-04-23T05:06:08.121Z,45.20
2019-04-23T05:08:26.228Z,45.00
2019-04-23T05:10:55.950Z,44.90
2019-04-23T05:13:33.897Z,44.60
2019-04-23T05:15:45.096Z,44.70
2019-04-23T05:18:38.590Z,44.70
2019-04-23T05:21:06.094Z,44.60
2019-04-23T05:23:50.448Z,44.70
2019-04-23T05:26:23.931Z,44.40
2019-04-23T05:28:55.508Z,44.50
2019-04-23T05:33:49.339Z,44.50
2019-04-23T05:36:20.110Z,44.20
2019-04-23T05:41:16.914Z,44.30
2019-04-23T05:43:40.917Z,44.40
2019-04-23T05:46:19.188Z,44.30
2019-04-23T05:48:40.483Z,44.20
2019-04-23T05:51:10.960Z,44.10
2019-04-23T05:53:40.773Z,43.80
2019-04-23T05:56:03.595Z,44.10
2019-04-23T06:01:41.700Z,43.70
2019-04-23T06:03:56.756Z,43.50
2019-04-23T06:06:20.950Z,43.50
2019-04-23T06:08:51.683Z,43.70
2019-04-23T06:13:56.164Z,43.30
2019-04-23T06:16:24.954Z,43.10
2019-04-23T06:18:44.709Z,42.90
2019-04-23T06:21:20.701Z,43.30
2019-04-23T06:28:46.768Z,42.70
2019-04-23T06:31:20.287Z,43.10
2019-04-23T06:33:41.767Z,42.70
2019-04-23T06:38:46.173Z,42.90
2019-04-23T06:41:08.888Z,42.30
2019-04-23T06:43:43.735Z,42.00
2019-04-23T06:46:04.862Z,41.90
2019-04-23T06:48:35.160Z,41.60
2019-04-23T06:51:12.849Z,40.70
2019-04-23T06:53:28.625Z,41.40
2019-04-23T06:56:06.724Z,41.40
2019-04-23T06:58:32.776Z,41.10
2019-04-23T07:01:02.044Z,41.20
2019-04-23T07:03:38.356Z,41.10
2019-04-23T07:06:19.155Z,39.80
2019-04-23T07:08:53.921Z,39.40
2019-04-23T07:11:09.619Z,40.00
2019-04-23T07:13:45.049Z,39.10
2019-04-23T07:16:04.689Z,39.10
2019-04-23T07:18:32.971Z,38.80
2019-04-23T07:21:07.950Z,38.60
2019-04-23T07:23:37.955Z,38.20
2019-04-23T07:26:09.278Z,38.70
2019-04-23T07:28:37.253Z,38.70
2019-04-23T07:31:07.484Z,39.20
2019-04-23T07:33:31.223Z,38.50
2019-04-23T07:36:01.830Z,38.60
2019-04-23T07:38:42.424Z,38.60
2019-04-23T07:41:09.345Z,37.00
2019-04-23T07:43:54.755Z,35.60
2019-04-23T07:48:50.626Z,36.00
2019-04-23T07:51:19.569Z,35.40
2019-04-23T07:53:52.125Z,35.80
2019-04-23T07:56:35.798Z,35.60
2019-04-23T07:58:39.895Z,35.20
2019-04-23T08:01:13.667Z,34.10
2019-04-23T08:03:43.487Z,33.70
2019-04-23T08:06:15.361Z,33.90
2019-04-23T08:08:44.858Z,33.10
2019-04-23T08:13:47.363Z,35.00
2019-04-23T08:16:21.817Z,33.40
2019-04-23T08:18:45.175Z,34.30
2019-04-23T08:21:10.514Z,33.80
2019-04-23T08:29:24.976Z,34.10
2019-04-23T08:32:03.989Z,34.20
2019-04-23T08:34:46.385Z,33.80
2019-04-23T08:39:26.915Z,34.60
2019-04-23T08:42:09.480Z,35.70
2019-04-23T08:44:50.817Z,35.90
2019-04-23T08:49:47.046Z,36.50
2019-04-23T08:52:12.190Z,35.20
2019-04-23T08:54:48.261Z,35.50
2019-04-23T08:57:08.703Z,36.20
2019-04-23T08:59:53.853Z,35.80
2019-04-23T09:02:24.216Z,36.60
2019-04-23T09:04:47.460Z,36.50
2019-04-23T09:07:15.761Z,36.10
2019-04-23T09:09:39.766Z,35.60
2019-04-23T09:12:03.292Z,36.00
2019-04-23T09:14:32.305Z,36.30
2019-04-23T09:17:04.918Z,37.00
2019-04-23T09:19:32.306Z,36.80
2019-04-23T09:22:01.976Z,37.70
2019-04-23T09:24:26.142Z,38.40
2019-04-23T09:27:00.474Z,39.50
2019-04-23T09:29:31.338Z,39.10
2019-04-23T09:32:22.391Z,39.10
2019-04-23T09:37:37.151Z,40.00
2019-04-23T09:40:18.982Z,39.60
2019-04-23T09:42:49.724Z,38.60
2019-04-23T09:45:29.988Z,38.70
2019-04-23T09:48:01.524Z,39.20
2019-04-23T09:50:29.862Z,39.10
2019-04-23T09:53:06.447Z,38.90
2019-04-23T09:55:27.533Z,38.90
2019-04-23T09:57:55.567Z,39.10
2019-04-23T10:00:30.796Z,38.80
2019-04-23T10:02:41.187Z,39.10
2019-04-23T10:05:07.307Z,39.30
2019-04-23T10:07:36.245Z,38.80
2019-04-23T10:09:51.760Z,38.50
2019-04-23T10:12:20.146Z,37.90
2019-04-23T10:14:59.353Z,38.10
2019-04-23T10:17:16.031Z,36.90
2019-04-23T10:19:44.608Z,36.60
2019-04-23T10:22:11.589Z,37.00
2019-04-23T10:24:39.253Z,36.90
2019-04-23T10:27:06.179Z,36.70
2019-04-23T10:29:36.341Z,37.60
2019-04-23T10:32:03.854Z,37.00
2019-04-23T10:34:42.892Z,37.20
2019-04-23T10:36:59.741Z,37.80
2019-04-23T10:39:32.433Z,38.00
2019-04-23T10:41:57.601Z,37.90
2019-04-23T10:44:43.183Z,38.10
2019-04-23T10:48:05.415Z,37.70
2019-04-23T10:50:50.959Z,38.40
2019-04-23T10:53:18.772Z,38.70
2019-04-23T10:55:46.791Z,38.10
2019-04-23T10:58:09.704Z,38.20
2019-04-23T11:00:35.865Z,38.60
2019-04-23T11:03:09.998Z,37.70
2019-04-23T11:05:43.857Z,38.00
2019-04-23T11:08:02.369Z,38.10
2019-04-23T11:10:26.105Z,37.90
2019-04-23T11:13:25.644Z,37.60
2019-04-23T11:16:06.989Z,36.80
2019-04-23T11:18:08.972Z,36.80
2019-04-23T11:23:09.173Z,37.70
2019-04-23T11:28:13.545Z,38.00
2019-04-23T11:30:41.705Z,37.70
2019-04-23T11:33:14.693Z,37.30
2019-04-23T11:36:04.191Z,37.90
2019-04-23T11:40:40.385Z,37.70
2019-04-23T11:45:50.195Z,37.50
2019-04-23T11:48:32.956Z,37.60
2019-04-23T11:51:11.181Z,37.30
2019-04-23T12:00:44.710Z,37.10
2019-04-23T12:03:41.833Z,37.10
2019-04-23T12:06:23.718Z,36.90
2019-04-23T12:08:56.710Z,36.60
2019-04-23T12:11:52.953Z,37.40
2019-04-23T12:14:37.225Z,37.70
2019-04-23T12:19:54.888Z,37.90
2019-04-23T12:22:02.851Z,37.70
2019-04-23T12:27:05.877Z,38.00
2019-04-23T12:29:33.850Z,37.60
2019-04-23T12:32:23.939Z,37.80
2019-04-23T12:34:57.862Z,37.20
2019-04-23T12:37:16.436Z,37.90
2019-04-23T12:39:43.383Z,37.70
2019-04-23T12:42:34.334Z,37.70
2019-04-23T12:44:38.662Z,38.10
2019-04-23T12:47:18.815Z,37.90
2019-04-23T12:49:53.349Z,38.10
2019-04-23T12:52:12.100Z,37.80
2019-04-23T12:54:51.102Z,37.20
2019-04-23T12:59:41.419Z,36.80
2019-04-23T13:02:27.339Z,36.60
2019-04-23T13:04:39.086Z,36.20
2019-04-23T13:07:09.117Z,36.60
2019-04-23T13:09:45.802Z,36.20
2019-04-23T13:12:17.654Z,36.60
2019-04-23T13:14:44.029Z,36.60
2019-04-23T13:17:12.549Z,35.90
2019-04-23T13:22:14.268Z,36.00
2019-04-23T13:24:48.977Z,36.20
2019-04-23T13:27:20.707Z,35.70
2019-04-23T13:29:51.852Z,35.60
2019-04-23T13:32:12.912Z,35.70
2019-04-23T13:34:51.055Z,35.70
2019-04-23T13:37:25.631Z,35.40
2019-04-23T13:39:42.190Z,36.00
2019-04-23T13:42:19.754Z,35.90
2019-04-23T13:44:43.983Z,35.80
2019-04-23T13:47:18.188Z,35.40
2019-04-23T13:49:43.140Z,35.80
2019-04-23T13:54:54.909Z,36.40
2019-04-23T13:57:33.198Z,36.40
2019-04-23T13:59:39.786Z,36.30
2019-04-23T14:02:12.615Z,36.60
2019-04-23T14:04:45.063Z,36.40
2019-04-23T14:07:14.677Z,36.60
2019-04-23T14:09:45.819Z,37.20
2019-04-23T14:12:13.586Z,37.20
2019-04-23T14:14:55.989Z,37.10
2019-04-23T14:17:19.835Z,36.80
2019-04-23T14:19:41.940Z,37.40
2019-04-23T14:22:21.077Z,37.50
2019-04-23T14:24:45.549Z,37.80
2019-04-23T14:27:10.990Z,38.30
2019-04-23T14:29:43.644Z,38.10
2019-04-23T14:34:29.240Z,38.00
2019-04-23T14:37:10.055Z,37.80
2019-04-23T14:39:28.741Z,37.20
2019-04-23T14:41:56.398Z,37.70
2019-04-23T14:44:27.684Z,38.00
2019-04-23T14:46:58.387Z,38.20
2019-04-23T14:49:36.104Z,37.70
2019-04-23T14:51:58.847Z,37.30
2019-04-23T14:55:01.556Z,37.70
2019-04-23T14:56:58.860Z,37.70
2019-04-23T14:59:16.328Z,38.40
2019-04-23T15:01:54.941Z,38.60
2019-04-23T15:04:24.284Z,38.10
2019-04-23T15:11:56.589Z,37.70
2019-04-23T15:14:17.602Z,37.70
2019-04-23T15:16:46.067Z,37.70
2019-04-23T15:19:37.261Z,37.80
2019-04-23T15:22:04.546Z,37.40
2019-04-23T15:27:53.159Z,37.60
2019-04-23T15:29:05.736Z,37.10
2019-04-23T15:31:52.408Z,36.70
2019-04-23T15:37:00.909Z,37.00
2019-04-23T15:39:21.370Z,37.10
2019-04-23T15:41:49.685Z,37.20
2019-04-23T15:44:49.056Z,37.00
2019-04-23T15:46:39.070Z,36.80
2019-04-23T15:49:16.255Z,37.10
2019-04-23T15:51:46.860Z,37.00
2019-04-23T15:54:13.764Z,37.10
2019-04-23T16:01:39.574Z,37.40
2019-04-23T16:03:36.007Z,37.30
2019-04-23T16:06:04.799Z,37.70
2019-04-23T16:19:22.013Z,38.10
2019-04-23T16:24:20.473Z,38.10
2019-04-23T16:26:47.321Z,38.50
2019-04-23T16:29:25.819Z,38.80
2019-04-23T16:32:04.228Z,38.70
2019-04-23T16:34:22.384Z,38.90
2019-04-23T16:36:55.511Z,39.30
2019-04-23T16:39:13.378Z,39.40
2019-04-23T16:41:52.130Z,39.60
2019-04-23T16:44:15.846Z,39.40
2019-04-23T16:46:43.582Z,39.50
2019-04-23T16:49:06.837Z,39.60
2019-04-23T16:51:31.919Z,39.70
2019-04-23T16:54:09.871Z,39.90
2019-04-23T16:56:55.688Z,40.00
2019-04-23T16:59:08.443Z,40.20
2019-04-23T17:01:25.684Z,40.00
2019-04-23T17:04:03.682Z,39.60
2019-04-23T17:06:46.228Z,39.10
2019-04-23T17:09:03.115Z,39.40
2019-04-23T17:14:02.736Z,39.70
2019-04-23T17:16:32.349Z,39.90
2019-04-23T17:18:58.954Z,40.30
2019-04-23T17:21:23.735Z,40.20
2019-04-23T17:23:59.278Z,40.20
2019-04-23T17:28:51.737Z,40.10
2019-04-23T17:31:34.540Z,40.40
2019-04-23T17:33:48.216Z,40.40
2019-04-23T17:36:24.848Z,40.60
2019-04-23T17:38:55.090Z,41.70
2019-04-23T17:41:31.165Z,41.10
2019-04-23T17:46:27.357Z,41.40
2019-04-23T17:48:56.490Z,41.90
2019-04-23T17:51:19.882Z,41.30
2019-04-23T17:53:58.736Z,41.50
2019-04-23T17:59:07.242Z,41.60
2019-04-23T18:01:20.315Z,41.90
2019-04-23T18:06:28.032Z,42.00
2019-04-23T18:08:51.008Z,42.30
2019-04-23T18:16:21.897Z,42.90
2019-04-23T18:18:59.113Z,43.90
2019-04-23T18:21:35.817Z,45.00
2019-04-23T18:24:27.692Z,45.60
2019-04-23T18:32:22.122Z,47.70
2019-04-23T18:37:25.752Z,49.50
2019-04-23T18:39:43.751Z,50.00
2019-04-23T18:42:26.611Z,50.90
2019-04-23T18:44:52.180Z,51.20
2019-04-23T18:47:29.320Z,51.20
2019-04-23T18:54:45.022Z,52.40
2019-04-23T18:59:47.466Z,53.50
2019-04-23T19:02:37.934Z,54.30
2019-04-23T19:08:00.978Z,55.90
2019-04-23T19:10:36.061Z,56.60
2019-04-23T19:13:09.523Z,57.30
2019-04-23T19:15:39.623Z,58.60
2019-04-23T19:20:55.813Z,58.70
2019-04-23T19:23:08.248Z,58.90
2019-04-23T19:25:35.966Z,59.10
2019-04-23T19:28:07.569Z,59.20
2019-04-23T19:30:49.637Z,60.00
2019-04-23T19:38:12.949Z,62.20
2019-04-23T19:40:48.813Z,62.20
2019-04-23T19:43:15.255Z,62.90
2019-04-23T19:48:19.291Z,63.10
2019-04-23T19:50:51.988Z,62.90
2019-04-23T19:53:29.728Z,62.20
2019-04-23T19:55:50.050Z,62.70
2019-04-23T19:58:04.970Z,63.40
2019-04-23T20:00:44.381Z,64.20
2019-04-23T20:03:25.970Z,64.40
2019-04-23T20:05:34.130Z,64.80
2019-04-23T20:08:02.602Z,65.00
2019-04-23T20:10:29.626Z,65.70
2019-04-23T20:12:51.724Z,66.50
2019-04-23T20:15:35.585Z,67.20
2019-04-23T20:20:30.410Z,67.40
2019-04-23T20:22:51.225Z,67.50
2019-04-23T20:25:53.735Z,66.70
2019-04-23T20:28:05.713Z,65.70
2019-04-23T20:30:54.809Z,65.60
2019-04-23T20:36:05.569Z,66.30
2019-04-23T20:38:33.382Z,66.00
2019-04-23T20:41:08.241Z,65.90
2019-04-23T20:43:22.631Z,66.20
2019-04-23T20:45:55.818Z,65.60
2019-04-23T20:48:25.910Z,66.20
2019-04-23T20:50:44.532Z,65.30
2019-04-23T20:53:17.732Z,65.90
2019-04-23T20:58:34.035Z,67.10
2019-04-23T21:01:11.232Z,67.30
2019-04-23T21:03:46.280Z,66.90
2019-04-23T21:06:07.046Z,67.30
2019-04-23T21:10:55.570Z,67.30
2019-04-23T21:15:58.245Z,67.50
2019-04-23T21:18:33.066Z,67.80
2019-04-23T21:21:08.088Z,67.60
2019-04-23T21:23:21.657Z,67.60
2019-04-23T21:25:47.479Z,67.30
2019-04-23T21:28:38.206Z,68.10
2019-04-23T21:31:11.486Z,68.00
2019-04-23T21:33:46.094Z,67.80
2019-04-23T21:39:51.752Z,67.60
2019-04-23T21:42:14.464Z,67.00
2019-04-23T21:44:39.440Z,66.30
2019-04-23T21:47:36.632Z,64.00
2019-04-23T21:49:50.737Z,63.40
2019-04-23T21:52:05.187Z,63.20
2019-04-23T21:54:38.494Z,62.30
2019-04-23T21:57:00.284Z,60.80
2019-04-23T21:59:39.091Z,59.90
2019-04-23T22:01:59.333Z,59.90
2019-04-23T22:04:34.227Z,59.60
2019-04-23T22:09:31.957Z,60.00
2019-04-23T22:12:12.195Z,59.30
2019-04-23T22:14:34.136Z,58.50
2019-04-23T22:17:13.417Z,57.50
2019-04-23T22:19:20.192Z,57.10
2019-04-23T22:24:40.501Z,56.50
2019-04-23T22:29:29.325Z,56.40
2019-04-23T22:31:47.239Z,55.30
2019-04-23T22:41:49.058Z,55.60
2019-04-23T22:44:14.414Z,55.10
2019-04-23T22:49:41.844Z,55.00
2019-04-23T22:51:55.411Z,55.20
2019-04-23T22:54:14.177Z,55.00
2019-04-23T22:59:32.479Z,56.50
2019-04-23T23:04:20.621Z,57.30
2019-04-23T23:11:43.940Z,57.40
2019-04-23T23:14:12.230Z,57.40
2019-04-23T23:16:39.329Z,57.30
2019-04-23T23:19:19.378Z,57.60
2019-04-23T23:21:42.650Z,57.90
2019-04-23T23:26:47.841Z,57.90
2019-04-23T23:29:02.404Z,57.90
2019-04-23T23:31:32.088Z,58.30
2019-04-23T23:34:04.739Z,58.70
2019-04-23T23:36:28.519Z,58.50
2019-04-23T23:41:28.799Z,58.40
2019-04-23T23:44:07.638Z,58.30
2019-04-23T23:48:57.136Z,59.30
2019-04-23T23:56:15.825Z,60.20
